sensor_id;sensor_type;location;lat;lon;timestamp;P1;durP1;ratioP1;P2;durP2;ratioP2
27003;SDS011;14546;47.590;19.022;2022-10-16T00:02:24;15.43;;;7.75;;
27003;SDS011;14546;47.590;19.022;2022-10-16T00:04:50;12.32;;;6.88;;
27003;SDS011;14546;47.590;19.022;2022-10-16T00:07:16;18.33;;;7.25;;
27003;SDS011;14546;47.590;19.022;2022-10-16T00:09:42;9.32;;;6.88;;
27003;SDS011;14546;47.590;19.022;2022-10-16T00:12:08;11.90;;;6.68;;
27003;SDS011;14546;47.590;19.022;2022-10-16T00:14:34;12.95;;;6.40;;
27003;SDS011;14546;47.590;19.022;2022-10-16T00:17:00;15.20;;;7.40;;
27003;SDS011;14546;47.590;19.022;2022-10-16T00:19:26;10.93;;;6.47;;
27003;SDS011;14546;47.590;19.022;2022-10-16T00:21:52;14.77;;;6.85;;
27003;SDS011;14546;47.590;19.022;2022-10-16T00:24:19;11.27;;;6.50;;
27003;SDS011;14546;47.590;19.022;2022-10-16T00:26:45;13.27;;;6.47;;
27003;SDS011;14546;47.590;19.022;2022-10-16T00:29:11;14.80;;;7.60;;
27003;SDS011;14546;47.590;19.022;2022-10-16T00:31:37;13.48;;;6.93;;
27003;SDS011;14546;47.590;19.022;2022-10-16T00:34:03;10.77;;;6.97;;
27003;SDS011;14546;47.590;19.022;2022-10-16T00:36:29;10.95;;;6.90;;
27003;SDS011;14546;47.590;19.022;2022-10-16T00:38:57;11.68;;;6.65;;
27003;SDS011;14546;47.590;19.022;2022-10-16T00:41:25;11.38;;;6.28;;
27003;SDS011;14546;47.590;19.022;2022-10-16T00:44:01;17.55;;;6.90;;
27003;SDS011;14546;47.590;19.022;2022-10-16T00:49:03;12.90;;;6.70;;
27003;SDS011;14546;47.590;19.022;2022-10-16T00:51:32;17.40;;;6.78;;
27003;SDS011;14546;47.590;19.022;2022-10-16T00:53:59;12.50;;;6.53;;
27003;SDS011;14546;47.590;19.022;2022-10-16T00:56:25;12.07;;;6.43;;
27003;SDS011;14546;47.590;19.022;2022-10-16T00:58:51;10.70;;;6.43;;
27003;SDS011;14546;47.590;19.022;2022-10-16T01:01:17;10.52;;;6.00;;
27003;SDS011;14546;47.590;19.022;2022-10-16T01:03:43;12.50;;;7.00;;
27003;SDS011;14546;47.590;19.022;2022-10-16T01:11:44;11.30;;;6.97;;
27003;SDS011;14546;47.590;19.022;2022-10-16T01:14:26;12.00;;;7.07;;
27003;SDS011;14546;47.590;19.022;2022-10-16T01:16:59;13.18;;;7.05;;
27003;SDS011;14546;47.590;19.022;2022-10-16T01:19:31;13.43;;;7.22;;
27003;SDS011;14546;47.590;19.022;2022-10-16T01:22:02;13.55;;;7.40;;
27003;SDS011;14546;47.590;19.022;2022-10-16T01:24:40;9.85;;;7.13;;
27003;SDS011;14546;47.590;19.022;2022-10-16T01:32:14;16.52;;;7.20;;
27003;SDS011;14546;47.590;19.022;2022-10-16T01:34:54;10.40;;;6.50;;
27003;SDS011;14546;47.590;19.022;2022-10-16T01:37:27;11.73;;;7.13;;
27003;SDS011;14546;47.590;19.022;2022-10-16T01:39:55;14.35;;;7.70;;
27003;SDS011;14546;47.590;19.022;2022-10-16T01:42:31;15.98;;;7.45;;
27003;SDS011;14546;47.590;19.022;2022-10-16T01:44:59;17.25;;;7.78;;
27003;SDS011;14546;47.590;19.022;2022-10-16T01:47:26;11.05;;;6.97;;
27003;SDS011;14546;47.590;19.022;2022-10-16T01:49:53;9.60;;;7.13;;
27003;SDS011;14546;47.590;19.022;2022-10-16T01:52:21;10.25;;;7.53;;
27003;SDS011;14546;47.590;19.022;2022-10-16T01:54:49;11.38;;;7.20;;
27003;SDS011;14546;47.590;19.022;2022-10-16T01:57:18;16.23;;;7.20;;
27003;SDS011;14546;47.590;19.022;2022-10-16T01:59:46;11.32;;;7.10;;
27003;SDS011;14546;47.590;19.022;2022-10-16T02:02:13;10.60;;;6.65;;
27003;SDS011;14546;47.590;19.022;2022-10-16T02:04:42;17.88;;;7.95;;
27003;SDS011;14546;47.590;19.022;2022-10-16T02:07:09;12.77;;;7.55;;
27003;SDS011;14546;47.590;19.022;2022-10-16T02:09:36;12.20;;;7.15;;
27003;SDS011;14546;47.590;19.022;2022-10-16T02:12:04;11.73;;;7.45;;
27003;SDS011;14546;47.590;19.022;2022-10-16T02:14:32;9.45;;;7.53;;
27003;SDS011;14546;47.590;19.022;2022-10-16T02:16:58;12.32;;;7.03;;
27003;SDS011;14546;47.590;19.022;2022-10-16T02:19:24;11.80;;;7.05;;
27003;SDS011;14546;47.590;19.022;2022-10-16T02:21:51;14.48;;;7.07;;
27003;SDS011;14546;47.590;19.022;2022-10-16T02:24:25;11.20;;;6.97;;
27003;SDS011;14546;47.590;19.022;2022-10-16T02:29:20;11.68;;;7.82;;
27003;SDS011;14546;47.590;19.022;2022-10-16T02:31:49;14.00;;;7.25;;
27003;SDS011;14546;47.590;19.022;2022-10-16T02:34:16;14.80;;;7.70;;
27003;SDS011;14546;47.590;19.022;2022-10-16T02:36:44;13.05;;;7.75;;
27003;SDS011;14546;47.590;19.022;2022-10-16T02:39:10;14.70;;;7.40;;
27003;SDS011;14546;47.590;19.022;2022-10-16T02:41:37;10.93;;;7.70;;
27003;SDS011;14546;47.590;19.022;2022-10-16T02:44:03;12.90;;;7.90;;
27003;SDS011;14546;47.590;19.022;2022-10-16T02:46:29;14.73;;;7.57;;
27003;SDS011;14546;47.590;19.022;2022-10-16T02:48:55;11.57;;;7.60;;
27003;SDS011;14546;47.590;19.022;2022-10-16T02:51:21;11.07;;;7.45;;
27003;SDS011;14546;47.590;19.022;2022-10-16T02:53:47;16.27;;;7.22;;
27003;SDS011;14546;47.590;19.022;2022-10-16T02:56:13;15.27;;;8.65;;
27003;SDS011;14546;47.590;19.022;2022-10-16T02:58:39;14.70;;;7.88;;
27003;SDS011;14546;47.590;19.022;2022-10-16T03:01:05;13.80;;;7.40;;
27003;SDS011;14546;47.590;19.022;2022-10-16T03:03:31;22.85;;;7.78;;
27003;SDS011;14546;47.590;19.022;2022-10-16T03:05:57;11.88;;;7.63;;
27003;SDS011;14546;47.590;19.022;2022-10-16T03:08:24;10.02;;;7.43;;
27003;SDS011;14546;47.590;19.022;2022-10-16T03:10:50;14.95;;;8.23;;
27003;SDS011;14546;47.590;19.022;2022-10-16T03:13:16;11.60;;;7.22;;
27003;SDS011;14546;47.590;19.022;2022-10-16T03:15:45;14.63;;;7.88;;
27003;SDS011;14546;47.590;19.022;2022-10-16T03:18:11;12.30;;;7.68;;
27003;SDS011;14546;47.590;19.022;2022-10-16T03:20:37;16.50;;;7.93;;
27003;SDS011;14546;47.590;19.022;2022-10-16T03:23:03;15.27;;;8.00;;
27003;SDS011;14546;47.590;19.022;2022-10-16T03:25:29;10.77;;;8.18;;
27003;SDS011;14546;47.590;19.022;2022-10-16T03:27:55;14.10;;;7.88;;
27003;SDS011;14546;47.590;19.022;2022-10-16T03:30:21;19.83;;;7.90;;
27003;SDS011;14546;47.590;19.022;2022-10-16T03:32:47;14.23;;;8.10;;
27003;SDS011;14546;47.590;19.022;2022-10-16T03:35:13;11.90;;;8.88;;
27003;SDS011;14546;47.590;19.022;2022-10-16T03:37:39;18.63;;;9.23;;
27003;SDS011;14546;47.590;19.022;2022-10-16T03:40:05;11.90;;;8.38;;
27003;SDS011;14546;47.590;19.022;2022-10-16T03:42:31;14.23;;;8.98;;
27003;SDS011;14546;47.590;19.022;2022-10-16T03:44:57;15.48;;;8.52;;
27003;SDS011;14546;47.590;19.022;2022-10-16T03:47:23;16.10;;;8.85;;
27003;SDS011;14546;47.590;19.022;2022-10-16T03:49:50;12.10;;;8.30;;
27003;SDS011;14546;47.590;19.022;2022-10-16T03:52:16;15.80;;;9.55;;
27003;SDS011;14546;47.590;19.022;2022-10-16T03:54:43;16.98;;;9.15;;
27003;SDS011;14546;47.590;19.022;2022-10-16T03:57:09;15.63;;;9.38;;
27003;SDS011;14546;47.590;19.022;2022-10-16T03:59:35;14.55;;;8.80;;
27003;SDS011;14546;47.590;19.022;2022-10-16T04:02:01;17.30;;;9.23;;
27003;SDS011;14546;47.590;19.022;2022-10-16T04:04:27;16.25;;;9.00;;
27003;SDS011;14546;47.590;19.022;2022-10-16T04:06:53;15.82;;;9.48;;
27003;SDS011;14546;47.590;19.022;2022-10-16T04:09:19;13.73;;;8.88;;
27003;SDS011;14546;47.590;19.022;2022-10-16T04:14:33;15.52;;;9.25;;
27003;SDS011;14546;47.590;19.022;2022-10-16T04:16:59;14.27;;;9.82;;
27003;SDS011;14546;47.590;19.022;2022-10-16T04:19:25;11.30;;;8.90;;
27003;SDS011;14546;47.590;19.022;2022-10-16T04:21:51;15.02;;;8.65;;
27003;SDS011;14546;47.590;19.022;2022-10-16T04:24:17;15.75;;;9.75;;
27003;SDS011;14546;47.590;19.022;2022-10-16T04:26:43;20.08;;;9.60;;
27003;SDS011;14546;47.590;19.022;2022-10-16T04:29:09;16.05;;;9.20;;
27003;SDS011;14546;47.590;19.022;2022-10-16T04:31:35;16.95;;;9.65;;
27003;SDS011;14546;47.590;19.022;2022-10-16T04:34:01;16.02;;;9.52;;
27003;SDS011;14546;47.590;19.022;2022-10-16T04:36:27;13.07;;;9.38;;
27003;SDS011;14546;47.590;19.022;2022-10-16T04:38:54;18.60;;;9.88;;
27003;SDS011;14546;47.590;19.022;2022-10-16T04:41:20;19.95;;;10.20;;
27003;SDS011;14546;47.590;19.022;2022-10-16T04:43:46;17.33;;;9.95;;
27003;SDS011;14546;47.590;19.022;2022-10-16T04:46:12;14.18;;;10.45;;
27003;SDS011;14546;47.590;19.022;2022-10-16T04:48:38;13.65;;;9.35;;
27003;SDS011;14546;47.590;19.022;2022-10-16T04:51:04;17.65;;;9.98;;
27003;SDS011;14546;47.590;19.022;2022-10-16T04:53:30;13.55;;;9.65;;
27003;SDS011;14546;47.590;19.022;2022-10-16T04:55:57;15.20;;;9.50;;
27003;SDS011;14546;47.590;19.022;2022-10-16T04:58:23;20.77;;;9.05;;
27003;SDS011;14546;47.590;19.022;2022-10-16T05:00:49;16.10;;;9.13;;
27003;SDS011;14546;47.590;19.022;2022-10-16T05:03:15;15.00;;;9.70;;
27003;SDS011;14546;47.590;19.022;2022-10-16T05:05:44;15.73;;;9.60;;
27003;SDS011;14546;47.590;19.022;2022-10-16T05:08:14;13.75;;;8.98;;
27003;SDS011;14546;47.590;19.022;2022-10-16T05:10:43;17.55;;;10.20;;
27003;SDS011;14546;47.590;19.022;2022-10-16T05:13:10;19.95;;;10.05;;
27003;SDS011;14546;47.590;19.022;2022-10-16T05:15:36;16.50;;;9.32;;
27003;SDS011;14546;47.590;19.022;2022-10-16T05:18:02;16.35;;;9.60;;
27003;SDS011;14546;47.590;19.022;2022-10-16T05:20:31;19.30;;;9.90;;
27003;SDS011;14546;47.590;19.022;2022-10-16T05:22:57;18.23;;;10.35;;
27003;SDS011;14546;47.590;19.022;2022-10-16T05:25:23;15.68;;;10.80;;
27003;SDS011;14546;47.590;19.022;2022-10-16T05:27:49;15.00;;;10.48;;
27003;SDS011;14546;47.590;19.022;2022-10-16T05:30:16;15.90;;;10.02;;
27003;SDS011;14546;47.590;19.022;2022-10-16T05:32:45;16.00;;;10.27;;
27003;SDS011;14546;47.590;19.022;2022-10-16T05:35:11;16.92;;;9.73;;
27003;SDS011;14546;47.590;19.022;2022-10-16T05:37:38;18.35;;;9.52;;
27003;SDS011;14546;47.590;19.022;2022-10-16T05:40:04;13.40;;;9.40;;
27003;SDS011;14546;47.590;19.022;2022-10-16T05:42:30;18.35;;;9.95;;
27003;SDS011;14546;47.590;19.022;2022-10-16T05:44:56;16.13;;;9.73;;
27003;SDS011;14546;47.590;19.022;2022-10-16T05:47:22;22.20;;;10.20;;
27003;SDS011;14546;47.590;19.022;2022-10-16T05:49:48;15.13;;;9.85;;
27003;SDS011;14546;47.590;19.022;2022-10-16T05:52:14;15.45;;;10.15;;
27003;SDS011;14546;47.590;19.022;2022-10-16T05:54:40;21.15;;;11.73;;
27003;SDS011;14546;47.590;19.022;2022-10-16T05:57:06;22.27;;;11.77;;
27003;SDS011;14546;47.590;19.022;2022-10-16T05:59:32;18.58;;;11.20;;
27003;SDS011;14546;47.590;19.022;2022-10-16T06:01:59;16.75;;;10.93;;
27003;SDS011;14546;47.590;19.022;2022-10-16T06:04:25;16.85;;;11.15;;
27003;SDS011;14546;47.590;19.022;2022-10-16T06:06:51;15.60;;;11.20;;
27003;SDS011;14546;47.590;19.022;2022-10-16T06:09:17;17.55;;;10.73;;
27003;SDS011;14546;47.590;19.022;2022-10-16T06:11:43;15.27;;;10.15;;
27003;SDS011;14546;47.590;19.022;2022-10-16T06:14:09;14.65;;;10.43;;
27003;SDS011;14546;47.590;19.022;2022-10-16T06:16:36;14.77;;;10.60;;
27003;SDS011;14546;47.590;19.022;2022-10-16T06:19:03;14.88;;;10.45;;
27003;SDS011;14546;47.590;19.022;2022-10-16T06:21:33;15.88;;;10.45;;
27003;SDS011;14546;47.590;19.022;2022-10-16T06:23:59;15.63;;;11.07;;
27003;SDS011;14546;47.590;19.022;2022-10-16T06:26:26;25.42;;;10.68;;
27003;SDS011;14546;47.590;19.022;2022-10-16T06:28:56;14.70;;;10.40;;
27003;SDS011;14546;47.590;19.022;2022-10-16T06:31:22;16.92;;;11.82;;
27003;SDS011;14546;47.590;19.022;2022-10-16T06:33:52;16.88;;;10.13;;
27003;SDS011;14546;47.590;19.022;2022-10-16T06:36:19;12.52;;;9.18;;
27003;SDS011;14546;47.590;19.022;2022-10-16T06:38:45;15.52;;;10.80;;
27003;SDS011;14546;47.590;19.022;2022-10-16T06:41:13;18.63;;;10.57;;
27003;SDS011;14546;47.590;19.022;2022-10-16T06:43:39;17.23;;;9.55;;
27003;SDS011;14546;47.590;19.022;2022-10-16T06:46:06;16.40;;;9.63;;
27003;SDS011;14546;47.590;19.022;2022-10-16T06:48:33;19.92;;;10.10;;
27003;SDS011;14546;47.590;19.022;2022-10-16T06:51:04;15.98;;;9.45;;
27003;SDS011;14546;47.590;19.022;2022-10-16T06:53:31;14.73;;;9.15;;
27003;SDS011;14546;47.590;19.022;2022-10-16T06:55:57;18.77;;;9.27;;
27003;SDS011;14546;47.590;19.022;2022-10-16T06:58:23;13.93;;;9.30;;
27003;SDS011;14546;47.590;19.022;2022-10-16T07:00:54;17.60;;;9.45;;
27003;SDS011;14546;47.590;19.022;2022-10-16T07:03:21;17.27;;;9.57;;
27003;SDS011;14546;47.590;19.022;2022-10-16T07:05:47;13.35;;;9.13;;
27003;SDS011;14546;47.590;19.022;2022-10-16T07:08:13;15.45;;;9.85;;
27003;SDS011;14546;47.590;19.022;2022-10-16T07:10:40;20.15;;;10.30;;
27003;SDS011;14546;47.590;19.022;2022-10-16T07:13:06;19.95;;;11.05;;
27003;SDS011;14546;47.590;19.022;2022-10-16T07:15:32;18.23;;;10.15;;
27003;SDS011;14546;47.590;19.022;2022-10-16T07:17:58;16.88;;;9.73;;
27003;SDS011;14546;47.590;19.022;2022-10-16T07:20:24;15.63;;;10.63;;
27003;SDS011;14546;47.590;19.022;2022-10-16T07:22:51;22.80;;;11.07;;
27003;SDS011;14546;47.590;19.022;2022-10-16T07:25:18;26.95;;;10.00;;
27003;SDS011;14546;47.590;19.022;2022-10-16T07:27:44;17.50;;;9.73;;
27003;SDS011;14546;47.590;19.022;2022-10-16T07:30:10;15.82;;;9.35;;
27003;SDS011;14546;47.590;19.022;2022-10-16T07:32:36;15.10;;;9.63;;
27003;SDS011;14546;47.590;19.022;2022-10-16T07:35:03;20.00;;;9.20;;
27003;SDS011;14546;47.590;19.022;2022-10-16T07:37:29;19.83;;;9.75;;
27003;SDS011;14546;47.590;19.022;2022-10-16T07:39:57;17.38;;;8.68;;
27003;SDS011;14546;47.590;19.022;2022-10-16T07:42:23;18.88;;;9.15;;
27003;SDS011;14546;47.590;19.022;2022-10-16T07:44:49;17.30;;;8.48;;
27003;SDS011;14546;47.590;19.022;2022-10-16T07:47:15;13.10;;;9.57;;
27003;SDS011;14546;47.590;19.022;2022-10-16T07:49:41;13.30;;;8.70;;
27003;SDS011;14546;47.590;19.022;2022-10-16T07:52:07;12.73;;;9.32;;
27003;SDS011;14546;47.590;19.022;2022-10-16T07:54:33;15.32;;;9.05;;
27003;SDS011;14546;47.590;19.022;2022-10-16T07:56:59;16.05;;;9.68;;
27003;SDS011;14546;47.590;19.022;2022-10-16T07:59:25;18.17;;;9.70;;
27003;SDS011;14546;47.590;19.022;2022-10-16T08:01:51;17.17;;;9.10;;
27003;SDS011;14546;47.590;19.022;2022-10-16T08:04:17;14.88;;;8.95;;
27003;SDS011;14546;47.590;19.022;2022-10-16T08:06:43;12.98;;;9.23;;
27003;SDS011;14546;47.590;19.022;2022-10-16T08:09:10;15.95;;;9.55;;
27003;SDS011;14546;47.590;19.022;2022-10-16T08:11:36;13.85;;;9.13;;
27003;SDS011;14546;47.590;19.022;2022-10-16T08:14:02;13.63;;;9.68;;
27003;SDS011;14546;47.590;19.022;2022-10-16T08:16:28;21.13;;;9.18;;
27003;SDS011;14546;47.590;19.022;2022-10-16T08:18:54;14.93;;;8.80;;
27003;SDS011;14546;47.590;19.022;2022-10-16T08:21:21;14.60;;;8.35;;
27003;SDS011;14546;47.590;19.022;2022-10-16T08:23:50;14.88;;;9.13;;
27003;SDS011;14546;47.590;19.022;2022-10-16T08:26:16;16.05;;;9.05;;
27003;SDS011;14546;47.590;19.022;2022-10-16T08:28:44;11.20;;;9.23;;
27003;SDS011;14546;47.590;19.022;2022-10-16T08:31:11;19.88;;;9.05;;
27003;SDS011;14546;47.590;19.022;2022-10-16T08:33:37;13.68;;;8.95;;
27003;SDS011;14546;47.590;19.022;2022-10-16T08:36:04;14.55;;;8.95;;
27003;SDS011;14546;47.590;19.022;2022-10-16T08:38:31;13.90;;;8.75;;
27003;SDS011;14546;47.590;19.022;2022-10-16T08:41:08;17.73;;;8.77;;
27003;SDS011;14546;47.590;19.022;2022-10-16T08:48:45;16.65;;;8.52;;
27003;SDS011;14546;47.590;19.022;2022-10-16T08:51:13;12.50;;;8.70;;
27003;SDS011;14546;47.590;19.022;2022-10-16T08:56:08;18.23;;;8.73;;
27003;SDS011;14546;47.590;19.022;2022-10-16T08:58:34;14.68;;;9.07;;
27003;SDS011;14546;47.590;19.022;2022-10-16T09:01:01;13.13;;;9.40;;
27003;SDS011;14546;47.590;19.022;2022-10-16T09:13:55;23.48;;;8.70;;
27003;SDS011;14546;47.590;19.022;2022-10-16T09:21:27;13.18;;;8.45;;
27003;SDS011;14546;47.590;19.022;2022-10-16T09:23:57;14.20;;;8.00;;
27003;SDS011;14546;47.590;19.022;2022-10-16T09:26:24;13.25;;;8.48;;
27003;SDS011;14546;47.590;19.022;2022-10-16T09:28:51;14.02;;;8.13;;
27003;SDS011;14546;47.590;19.022;2022-10-16T09:31:19;14.00;;;8.73;;
27003;SDS011;14546;47.590;19.022;2022-10-16T09:33:48;13.90;;;8.43;;
27003;SDS011;14546;47.590;19.022;2022-10-16T09:36:15;13.40;;;8.32;;
27003;SDS011;14546;47.590;19.022;2022-10-16T09:38:41;16.75;;;8.13;;
27003;SDS011;14546;47.590;19.022;2022-10-16T09:41:21;17.10;;;8.82;;
27003;SDS011;14546;47.590;19.022;2022-10-16T09:46:24;14.50;;;8.30;;
27003;SDS011;14546;47.590;19.022;2022-10-16T09:48:51;13.82;;;8.90;;
27003;SDS011;14546;47.590;19.022;2022-10-16T09:51:21;16.23;;;8.55;;
27003;SDS011;14546;47.590;19.022;2022-10-16T09:53:48;16.85;;;8.73;;
27003;SDS011;14546;47.590;19.022;2022-10-16T09:56:21;20.50;;;8.30;;
27003;SDS011;14546;47.590;19.022;2022-10-16T09:58:55;11.82;;;7.55;;
27003;SDS011;14546;47.590;19.022;2022-10-16T10:01:22;12.57;;;7.88;;
27003;SDS011;14546;47.590;19.022;2022-10-16T10:03:50;13.88;;;8.02;;
27003;SDS011;14546;47.590;19.022;2022-10-16T10:11:35;18.33;;;8.98;;
27003;SDS011;14546;47.590;19.022;2022-10-16T10:14:05;11.82;;;7.38;;
27003;SDS011;14546;47.590;19.022;2022-10-16T10:16:32;15.27;;;7.30;;
27003;SDS011;14546;47.590;19.022;2022-10-16T10:19:01;10.73;;;7.13;;
27003;SDS011;14546;47.590;19.022;2022-10-16T10:21:27;12.05;;;7.72;;
27003;SDS011;14546;47.590;19.022;2022-10-16T10:23:56;18.13;;;7.93;;
27003;SDS011;14546;47.590;19.022;2022-10-16T10:26:24;13.95;;;7.75;;
27003;SDS011;14546;47.590;19.022;2022-10-16T10:32:04;14.63;;;7.82;;
27003;SDS011;14546;47.590;19.022;2022-10-16T10:39:51;12.90;;;6.45;;
27003;SDS011;14546;47.590;19.022;2022-10-16T10:43:03;9.65;;;6.85;;
27003;SDS011;14546;47.590;19.022;2022-10-16T10:47:40;10.95;;;6.70;;
27003;SDS011;14546;47.590;19.022;2022-10-16T10:53:02;11.38;;;6.97;;
27003;SDS011;14546;47.590;19.022;2022-10-16T10:55:33;13.35;;;6.88;;
27003;SDS011;14546;47.590;19.022;2022-10-16T11:08:06;12.23;;;6.40;;
27003;SDS011;14546;47.590;19.022;2022-10-16T11:10:43;10.63;;;5.88;;
27003;SDS011;14546;47.590;19.022;2022-10-16T11:15:42;11.27;;;6.00;;
27003;SDS011;14546;47.590;19.022;2022-10-16T11:18:16;12.77;;;6.57;;
27003;SDS011;14546;47.590;19.022;2022-10-16T11:20:49;13.55;;;6.20;;
27003;SDS011;14546;47.590;19.022;2022-10-16T11:23:18;19.02;;;6.55;;
27003;SDS011;14546;47.590;19.022;2022-10-16T11:25:47;8.23;;;5.70;;
27003;SDS011;14546;47.590;19.022;2022-10-16T11:30:47;12.35;;;6.03;;
27003;SDS011;14546;47.590;19.022;2022-10-16T11:33:22;9.45;;;5.88;;
27003;SDS011;14546;47.590;19.022;2022-10-16T11:35:53;9.45;;;5.88;;
27003;SDS011;14546;47.590;19.022;2022-10-16T11:40:47;12.85;;;5.82;;
27003;SDS011;14546;47.590;19.022;2022-10-16T11:45:54;10.82;;;4.88;;
27003;SDS011;14546;47.590;19.022;2022-10-16T11:48:32;8.85;;;5.40;;
27003;SDS011;14546;47.590;19.022;2022-10-16T11:53:51;9.75;;;5.22;;
27003;SDS011;14546;47.590;19.022;2022-10-16T11:56:20;11.43;;;6.18;;
27003;SDS011;14546;47.590;19.022;2022-10-16T11:59:00;10.07;;;5.40;;
27003;SDS011;14546;47.590;19.022;2022-10-16T12:01:33;13.90;;;5.32;;
27003;SDS011;14546;47.590;19.022;2022-10-16T12:11:43;10.23;;;4.70;;
27003;SDS011;14546;47.590;19.022;2022-10-16T12:16:39;10.10;;;4.50;;
27003;SDS011;14546;47.590;19.022;2022-10-16T12:19:19;10.57;;;4.60;;
27003;SDS011;14546;47.590;19.022;2022-10-16T12:21:45;15.90;;;4.68;;
27003;SDS011;14546;47.590;19.022;2022-10-16T12:27:20;14.80;;;4.50;;
27003;SDS011;14546;47.590;19.022;2022-10-16T12:29:47;8.20;;;4.90;;
27003;SDS011;14546;47.590;19.022;2022-10-16T12:34:52;15.77;;;4.10;;
27003;SDS011;14546;47.590;19.022;2022-10-16T12:37:23;6.85;;;3.88;;
27003;SDS011;14546;47.590;19.022;2022-10-16T12:39:50;7.35;;;4.10;;
27003;SDS011;14546;47.590;19.022;2022-10-16T12:42:22;8.45;;;3.90;;
27003;SDS011;14546;47.590;19.022;2022-10-16T12:44:48;6.43;;;4.20;;
27003;SDS011;14546;47.590;19.022;2022-10-16T12:47:21;10.55;;;4.30;;
27003;SDS011;14546;47.590;19.022;2022-10-16T12:49:49;7.03;;;4.03;;
27003;SDS011;14546;47.590;19.022;2022-10-16T12:54:51;9.23;;;3.85;;
27003;SDS011;14546;47.590;19.022;2022-10-16T13:12:37;9.13;;;3.83;;
27003;SDS011;14546;47.590;19.022;2022-10-16T13:18:22;9.13;;;4.30;;
27003;SDS011;14546;47.590;19.022;2022-10-16T13:24:07;6.75;;;3.88;;
27003;SDS011;14546;47.590;19.022;2022-10-16T13:26:53;4.50;;;3.97;;
27003;SDS011;14546;47.590;19.022;2022-10-16T13:29:21;8.18;;;4.05;;
27003;SDS011;14546;47.590;19.022;2022-10-16T13:31:47;4.32;;;3.58;;
27003;SDS011;14546;47.590;19.022;2022-10-16T13:34:19;7.32;;;4.07;;
27003;SDS011;14546;47.590;19.022;2022-10-16T13:36:47;10.35;;;3.70;;
27003;SDS011;14546;47.590;19.022;2022-10-16T13:39:28;5.72;;;3.58;;
27003;SDS011;14546;47.590;19.022;2022-10-16T13:42:01;6.65;;;3.60;;
27003;SDS011;14546;47.590;19.022;2022-10-16T13:44:28;8.55;;;3.47;;
27003;SDS011;14546;47.590;19.022;2022-10-16T13:47:00;9.45;;;3.70;;
27003;SDS011;14546;47.590;19.022;2022-10-16T13:49:26;7.20;;;3.75;;
27003;SDS011;14546;47.590;19.022;2022-10-16T13:51:58;3.67;;;3.38;;
27003;SDS011;14546;47.590;19.022;2022-10-16T13:54:25;4.22;;;3.38;;
27003;SDS011;14546;47.590;19.022;2022-10-16T13:56:51;6.90;;;3.42;;
27003;SDS011;14546;47.590;19.022;2022-10-16T13:59:24;5.30;;;3.30;;
27003;SDS011;14546;47.590;19.022;2022-10-16T14:01:51;6.13;;;3.28;;
27003;SDS011;14546;47.590;19.022;2022-10-16T14:04:19;8.98;;;3.58;;
27003;SDS011;14546;47.590;19.022;2022-10-16T14:06:46;5.65;;;3.50;;
27003;SDS011;14546;47.590;19.022;2022-10-16T14:09:30;7.15;;;3.80;;
27003;SDS011;14546;47.590;19.022;2022-10-16T14:14:23;5.88;;;3.45;;
27003;SDS011;14546;47.590;19.022;2022-10-16T14:16:49;6.85;;;4.15;;
27003;SDS011;14546;47.590;19.022;2022-10-16T14:19:20;10.02;;;4.00;;
27003;SDS011;14546;47.590;19.022;2022-10-16T14:21:47;6.53;;;4.05;;
27003;SDS011;14546;47.590;19.022;2022-10-16T14:24:22;6.15;;;3.55;;
27003;SDS011;14546;47.590;19.022;2022-10-16T14:26:50;7.88;;;3.95;;
27003;SDS011;14546;47.590;19.022;2022-10-16T14:29:20;7.80;;;3.95;;
27003;SDS011;14546;47.590;19.022;2022-10-16T14:31:59;11.63;;;3.40;;
27003;SDS011;14546;47.590;19.022;2022-10-16T14:34:36;6.57;;;3.70;;
27003;SDS011;14546;47.590;19.022;2022-10-16T14:37:10;8.32;;;3.85;;
27003;SDS011;14546;47.590;19.022;2022-10-16T14:39:39;9.75;;;3.50;;
27003;SDS011;14546;47.590;19.022;2022-10-16T14:42:11;11.50;;;3.60;;
27003;SDS011;14546;47.590;19.022;2022-10-16T14:44:39;5.47;;;3.78;;
27003;SDS011;14546;47.590;19.022;2022-10-16T14:47:09;6.47;;;3.92;;
27003;SDS011;14546;47.590;19.022;2022-10-16T14:49:38;15.93;;;4.05;;
27003;SDS011;14546;47.590;19.022;2022-10-16T14:52:08;5.63;;;3.58;;
27003;SDS011;14546;47.590;19.022;2022-10-16T14:54:34;5.88;;;3.42;;
27003;SDS011;14546;47.590;19.022;2022-10-16T14:57:00;11.70;;;4.28;;
27003;SDS011;14546;47.590;19.022;2022-10-16T15:01:52;10.63;;;4.20;;
27003;SDS011;14546;47.590;19.022;2022-10-16T15:04:18;5.30;;;3.80;;
27003;SDS011;14546;47.590;19.022;2022-10-16T15:06:44;10.18;;;3.83;;
27003;SDS011;14546;47.590;19.022;2022-10-16T15:09:10;9.23;;;4.15;;
27003;SDS011;14546;47.590;19.022;2022-10-16T15:11:36;7.40;;;4.45;;
27003;SDS011;14546;47.590;19.022;2022-10-16T15:14:03;12.65;;;4.63;;
27003;SDS011;14546;47.590;19.022;2022-10-16T15:16:29;10.23;;;4.28;;
27003;SDS011;14546;47.590;19.022;2022-10-16T15:18:56;7.35;;;4.30;;
27003;SDS011;14546;47.590;19.022;2022-10-16T15:21:24;8.25;;;3.95;;
27003;SDS011;14546;47.590;19.022;2022-10-16T15:23:51;6.68;;;4.38;;
27003;SDS011;14546;47.590;19.022;2022-10-16T15:26:17;8.15;;;4.38;;
27003;SDS011;14546;47.590;19.022;2022-10-16T15:28:43;10.10;;;4.15;;
27003;SDS011;14546;47.590;19.022;2022-10-16T15:31:09;8.75;;;5.13;;
27003;SDS011;14546;47.590;19.022;2022-10-16T15:33:35;12.15;;;4.55;;
27003;SDS011;14546;47.590;19.022;2022-10-16T15:36:02;7.85;;;4.78;;
27003;SDS011;14546;47.590;19.022;2022-10-16T15:38:28;8.88;;;4.97;;
27003;SDS011;14546;47.590;19.022;2022-10-16T15:40:55;9.80;;;5.15;;
27003;SDS011;14546;47.590;19.022;2022-10-16T15:43:21;7.45;;;4.50;;
27003;SDS011;14546;47.590;19.022;2022-10-16T15:46:04;6.93;;;5.03;;
27003;SDS011;14546;47.590;19.022;2022-10-16T15:48:31;6.53;;;5.17;;
27003;SDS011;14546;47.590;19.022;2022-10-16T15:50:58;11.02;;;5.60;;
27003;SDS011;14546;47.590;19.022;2022-10-16T15:53:24;15.32;;;5.30;;
27003;SDS011;14546;47.590;19.022;2022-10-16T15:55:50;12.02;;;5.93;;
27003;SDS011;14546;47.590;19.022;2022-10-16T15:58:16;8.52;;;4.93;;
27003;SDS011;14546;47.590;19.022;2022-10-16T16:00:43;9.63;;;5.45;;
27003;SDS011;14546;47.590;19.022;2022-10-16T16:03:09;10.50;;;5.32;;
27003;SDS011;14546;47.590;19.022;2022-10-16T16:05:37;8.70;;;5.40;;
27003;SDS011;14546;47.590;19.022;2022-10-16T16:08:04;7.65;;;5.28;;
27003;SDS011;14546;47.590;19.022;2022-10-16T16:10:30;10.48;;;5.70;;
27003;SDS011;14546;47.590;19.022;2022-10-16T16:12:56;10.02;;;6.32;;
27003;SDS011;14546;47.590;19.022;2022-10-16T16:15:24;12.63;;;5.28;;
27003;SDS011;14546;47.590;19.022;2022-10-16T16:17:50;8.20;;;5.50;;
27003;SDS011;14546;47.590;19.022;2022-10-16T16:20:16;9.48;;;5.95;;
27003;SDS011;14546;47.590;19.022;2022-10-16T16:22:42;12.48;;;5.47;;
27003;SDS011;14546;47.590;19.022;2022-10-16T16:25:08;8.18;;;5.63;;
27003;SDS011;14546;47.590;19.022;2022-10-16T16:27:34;10.10;;;5.20;;
27003;SDS011;14546;47.590;19.022;2022-10-16T16:30:03;14.63;;;7.05;;
27003;SDS011;14546;47.590;19.022;2022-10-16T16:32:29;11.75;;;5.82;;
27003;SDS011;14546;47.590;19.022;2022-10-16T16:34:55;14.07;;;5.72;;
27003;SDS011;14546;47.590;19.022;2022-10-16T16:37:21;17.52;;;5.43;;
27003;SDS011;14546;47.590;19.022;2022-10-16T16:39:47;23.20;;;6.43;;